Time;durP1;ratioP1;P1;durP2;ratioP2;P2;SDS_P1;SDS_P2;PMS_P1;PMS_P2;Temp;Humidity;BMP_temperature;BMP_pressure;BME280_temperature;BME280_humidity;BME280_pressure;Samples;Min_cycle;Max_cycle;Signal;HPM_P1;HPM_P2
2022/07/29 00:00:54;;;;;;;17.23;12.13;;;23.80;65.40;;;;;;5014183;28;20503;-14
2022/07/29 00:03:20;;;;;;;16.13;10.82;;;24.00;65.80;;;;;;5014094;28;20018;-13
2022/07/29 00:05:46;;;;;;;10.70;8.00;;;24.10;65.70;;;;;;5014146;28;20022;-13
2022/07/29 00:08:12;;;;;;;10.20;7.10;;;24.30;64.20;;;;;;5013932;28;20486;-13
2022/07/29 00:10:39;;;;;;;7.82;5.05;;;24.40;62.60;;;;;;5013626;28;20033;-13
2022/07/29 00:13:04;;;;;;;7.70;4.40;;;24.50;60.70;;;;;;5013639;28;20018;-13
2022/07/29 00:15:30;;;;;;;7.55;3.80;;;24.50;59.50;;;;;;5013918;28;20038;-13
2022/07/29 00:17:56;;;;;;;7.22;3.53;;;24.40;59.20;;;;;;5013768;28;20034;-13
2022/07/29 00:20:22;;;;;;;8.10;3.55;;;24.30;59.20;;;;;;5013437;28;20486;-13
2022/07/29 00:22:48;;;;;;;7.38;3.35;;;24.10;60.20;;;;;;5013650;28;20037;-13
2022/07/29 00:25:14;;;;;;;6.60;3.15;;;23.90;61.30;;;;;;5013523;28;20029;-13
2022/07/29 00:27:40;;;;;;;4.32;2.70;;;23.70;62.00;;;;;;5013835;28;20030;-13
2022/07/29 00:30:07;;;;;;;4.68;2.50;;;23.50;62.10;;;;;;5013475;28;20026;-13
2022/07/29 00:32:34;;;;;;;3.80;2.20;;;23.30;63.00;;;;;;5012078;28;20025;-13
2022/07/29 00:37:44;;;;;;;5.22;2.47;;;23.00;62.80;;;;;;5013631;28;20045;-13
2022/07/29 00:40:10;;;;;;;2.70;1.83;;;22.80;63.80;;;;;;5013391;28;20045;-14
2022/07/29 00:42:46;;;;;;;4.70;2.30;;;22.60;65.90;;;;;;5013319;28;20065;-13
2022/07/29 00:45:13;;;;;;;6.28;2.78;;;22.30;67.00;;;;;;5013593;28;20109;-13
2022/07/29 00:47:40;;;;;;;4.72;2.53;;;22.00;68.70;;;;;;5013297;28;20037;-13
2022/07/29 00:50:08;;;;;;;3.15;2.45;;;21.70;68.60;;;;;;5013481;28;20037;-13
2022/07/29 00:52:36;;;;;;;2.47;2.15;;;21.60;69.30;;;;;;5013048;28;20095;-13
2022/07/29 00:55:08;;;;;;;3.03;2.28;;;21.40;70.00;;;;;;5013152;28;20509;-16
2022/07/29 00:57:35;;;;;;;5.68;2.75;;;21.20;71.10;;;;;;5013676;28;20041;-14
2022/07/29 01:00:04;;;;;;;3.58;2.50;;;21.10;71.90;;;;;;5013322;28;20116;-14
2022/07/29 01:02:30;;;;;;;4.03;2.38;;;21.00;71.30;;;;;;5012957;28;20026;-14
2022/07/29 01:04:57;;;;;;;4.28;2.50;;;21.00;71.10;;;;;;5013459;28;20075;-14
2022/07/29 01:07:26;;;;;;;3.67;2.35;;;20.90;71.10;;;;;;5013415;28;20083;-14
2022/07/29 01:09:53;;;;;;;5.30;2.25;;;20.90;71.30;;;;;;5013434;28;20041;-14
2022/07/29 01:12:23;;;;;;;3.25;2.42;;;20.90;72.00;;;;;;5013214;28;20026;-14
2022/07/29 01:14:52;;;;;;;5.68;2.60;;;21.00;72.60;;;;;;5013337;28;20124;-14
2022/07/29 01:17:26;;;;;;;4.30;2.45;;;20.90;72.30;;;;;;5013547;28;20475;-14
2022/07/29 01:20:10;;;;;;;4.78;3.10;;;20.90;72.70;;;;;;5013271;28;20427;-14
2022/07/29 01:22:57;;;;;;;4.15;2.63;;;20.90;73.30;;;;;;5012904;28;20030;-14
2022/07/29 01:25:41;;;;;;;4.90;2.55;;;20.80;73.50;;;;;;5013335;28;20176;-14
2022/07/29 01:28:10;;;;;;;2.85;2.28;;;20.80;73.60;;;;;;5012920;28;20084;-14
2022/07/29 01:30:39;;;;;;;3.40;2.50;;;20.80;73.70;;;;;;5015126;28;20034;-14
2022/07/29 01:33:10;;;;;;;3.42;2.80;;;20.80;73.90;;;;;;5016984;28;20033;-14
2022/07/29 01:35:40;;;;;;;4.93;3.40;;;20.80;74.40;;;;;;5017005;28;20091;-14
2022/07/29 01:38:19;;;;;;;3.85;3.10;;;20.70;74.50;;;;;;5016701;28;20389;-14
2022/07/29 01:40:54;;;;;;;3.35;3.05;;;20.70;75.20;;;;;;5016556;28;20034;-14
2022/07/29 01:43:31;;;;;;;6.35;3.58;;;20.70;75.70;;;;;;5016485;28;20026;-14
2022/07/29 01:46:01;;;;;;;4.80;3.00;;;20.70;76.40;;;;;;5016777;28;20029;-14
2022/07/29 01:48:41;;;;;;;4.82;2.80;;;20.60;75.90;;;;;;5016340;28;20033;-14
2022/07/29 01:51:19;;;;;;;4.55;2.78;;;20.70;75.80;;;;;;5016749;28;20021;-14
2022/07/29 01:54:23;;;;;;;4.70;3.05;;;20.70;75.70;;;;;;5016181;28;20030;-14
2022/07/29 01:56:53;;;;;;;4.13;2.90;;;20.70;77.00;;;;;;5015539;28;20037;-14
2022/07/29 01:59:20;;;;;;;4.35;3.00;;;20.70;75.90;;;;;;5016190;28;20072;-14
2022/07/29 02:01:48;;;;;;;4.07;3.20;;;20.70;76.30;;;;;;5016440;28;20026;-14
2022/07/29 02:04:16;;;;;;;6.18;3.72;;;20.70;76.00;;;;;;5016089;28;20029;-16
2022/07/29 02:06:44;;;;;;;4.47;3.60;;;20.70;76.20;;;;;;5015972;28;20034;-14
2022/07/29 02:09:14;;;;;;;5.20;3.88;;;20.80;76.90;;;;;;5016025;28;20026;-14
2022/07/29 02:11:44;;;;;;;5.35;3.70;;;20.70;76.80;;;;;;5016286;28;20033;-14
2022/07/29 02:14:13;;;;;;;5.40;3.60;;;20.70;76.80;;;;;;5016170;28;20088;-14
2022/07/29 02:16:40;;;;;;;6.90;3.95;;;20.70;76.60;;;;;;5015977;28;20108;-14
2022/07/29 02:19:08;;;;;;;6.22;3.70;;;20.70;76.80;;;;;;5015857;28;20125;-14
2022/07/29 02:21:35;;;;;;;5.28;3.30;;;20.70;76.90;;;;;;5016039;28;20073;-14
2022/07/29 02:24:02;;;;;;;5.05;3.20;;;20.70;76.60;;;;;;5016009;28;20413;-14
2022/07/29 02:26:30;;;;;;;4.05;3.00;;;20.70;76.10;;;;;;5015699;28;20048;-14
2022/07/29 02:28:58;;;;;;;5.10;3.15;;;20.80;75.60;;;;;;5016239;28;20030;-14
2022/07/29 02:31:30;;;;;;;6.03;3.20;;;20.80;75.10;;;;;;5015932;28;20513;-14
2022/07/29 02:33:57;;;;;;;4.65;2.78;;;20.80;74.70;;;;;;5015518;28;20022;-14
2022/07/29 02:36:24;;;;;;;4.90;2.65;;;20.80;74.50;;;;;;5015512;28;20437;-14
2022/07/29 02:38:51;;;;;;;3.85;2.70;;;20.80;74.10;;;;;;5014053;28;20109;-14
2022/07/29 02:41:33;;;;;;;3.00;2.50;;;20.80;73.70;;;;;;5015486;28;20022;-14
2022/07/29 02:44:06;;;;;;;3.78;2.78;;;20.80;73.50;;;;;;5015728;28;20052;-14
2022/07/29 02:46:35;;;;;;;4.53;3.22;;;20.80;73.40;;;;;;5015215;28;20022;-14
2022/07/29 02:49:19;;;;;;;3.35;2.97;;;20.80;73.30;;;;;;5015230;28;20367;-14
2022/07/29 02:52:29;;;;;;;4.07;2.95;;;20.70;73.40;;;;;;5015566;28;20022;-14
2022/07/29 02:55:07;;;;;;;3.42;2.60;;;20.80;73.60;;;;;;4993502;28;20057;-14
2022/07/29 02:57:43;;;;;;;3.92;2.50;;;20.70;73.50;;;;;;4993444;28;20023;-14
2022/07/29 03:00:11;;;;;;;3.58;2.83;;;20.70;73.40;;;;;;4993650;28;20041;-14
2022/07/29 03:02:40;;;;;;;3.85;2.90;;;20.60;73.30;;;;;;4993252;28;20107;-14
2022/07/29 03:05:11;;;;;;;4.28;2.78;;;20.60;73.40;;;;;;4993212;28;20561;-14
2022/07/29 03:07:39;;;;;;;3.63;3.05;;;20.50;73.50;;;;;;4993689;28;20027;-14
2022/07/29 03:10:08;;;;;;;3.92;2.67;;;20.40;73.60;;;;;;4993248;28;20509;-14
2022/07/29 03:12:36;;;;;;;3.50;2.90;;;20.40;73.70;;;;;;4992960;28;20042;-14
2022/07/29 03:15:02;;;;;;;4.65;2.55;;;20.40;73.80;;;;;;4993047;28;20124;-14
2022/07/29 03:17:31;;;;;;;4.05;3.00;;;20.40;74.00;;;;;;4993211;28;20050;-14
2022/07/29 03:19:58;;;;;;;4.57;2.70;;;20.40;74.30;;;;;;4993056;28;20048;-14
2022/07/29 03:22:25;;;;;;;6.57;3.10;;;20.30;74.40;;;;;;4992788;28;20030;-14
2022/07/29 03:24:51;;;;;;;5.88;3.30;;;20.30;74.60;;;;;;4997828;28;20065;-14
2022/07/29 03:27:18;;;;;;;5.55;3.60;;;20.20;74.80;;;;;;5014467;28;20525;-14
2022/07/29 03:29:44;;;;;;;3.75;2.75;;;20.20;74.80;;;;;;5014473;28;20548;-14
2022/07/29 03:32:10;;;;;;;4.78;2.90;;;20.20;75.00;;;;;;5014734;28;20034;-14
2022/07/29 03:34:37;;;;;;;3.10;2.80;;;20.20;74.90;;;;;;5014134;28;20109;-14
2022/07/29 03:37:05;;;;;;;3.90;2.70;;;20.10;74.80;;;;;;5014669;28;20026;-14
2022/07/29 03:39:36;;;;;;;3.53;2.90;;;20.10;75.10;;;;;;5014388;28;20053;-14
2022/07/29 03:42:06;;;;;;;3.58;3.05;;;20.00;75.20;;;;;;5014344;28;20113;-14
2022/07/29 03:44:32;;;;;;;3.38;2.90;;;20.00;75.40;;;;;;5012788;28;20402;-14
2022/07/29 03:47:01;;;;;;;4.57;3.67;;;19.90;75.40;;;;;;5014644;28;20478;-14
2022/07/29 03:49:29;;;;;;;4.85;3.00;;;19.90;75.50;;;;;;5014646;28;20516;-14
2022/07/29 03:51:55;;;;;;;4.97;3.50;;;19.90;75.60;;;;;;5014089;28;20026;-15
2022/07/29 03:54:22;;;;;;;3.72;2.88;;;19.80;75.70;;;;;;5013757;28;20029;-14
2022/07/29 03:56:50;;;;;;;3.28;2.65;;;19.70;76.00;;;;;;5013916;28;20029;-14
2022/07/29 03:59:19;;;;;;;4.22;2.75;;;19.70;76.00;;;;;;5013841;28;20045;-14
2022/07/29 04:01:46;;;;;;;4.45;2.90;;;19.70;76.10;;;;;;5014202;28;20026;-14
2022/07/29 04:04:12;;;;;;;3.80;2.75;;;19.60;76.30;;;;;;5014204;28;20025;-14
2022/07/29 04:06:44;;;;;;;4.40;3.67;;;19.60;76.30;;;;;;5013980;28;20426;-14
2022/07/29 04:09:10;;;;;;;3.50;3.10;;;19.60;76.30;;;;;;5014162;28;20017;-14
2022/07/29 04:11:39;;;;;;;5.85;3.80;;;19.60;76.50;;;;;;5013885;28;20513;-14
2022/07/29 04:14:05;;;;;;;5.95;4.05;;;19.60;76.60;;;;;;5013655;28;20088;-14
2022/07/29 04:16:32;;;;;;;7.03;4.40;;;19.50;76.90;;;;;;5013470;28;20030;-14
2022/07/29 04:18:58;;;;;;;6.28;4.15;;;19.50;76.80;;;;;;5013694;28;20061;-14
2022/07/29 04:21:24;;;;;;;7.20;4.28;;;19.60;76.90;;;;;;5013570;28;20494;-13
2022/07/29 04:23:50;;;;;;;6.78;4.68;;;19.60;77.00;;;;;;5013629;28;20030;-13
2022/07/29 04:26:17;;;;;;;6.40;4.25;;;19.60;77.50;;;;;;5013486;28;20028;-14
2022/07/29 04:28:44;;;;;;;8.27;4.22;;;19.60;77.10;;;;;;5013583;28;20113;-14
2022/07/29 04:31:10;;;;;;;6.50;4.30;;;19.60;77.10;;;;;;5013523;28;20022;-14
2022/07/29 04:33:36;;;;;;;6.10;4.38;;;19.70;77.20;;;;;;5013438;28;20049;-14
2022/07/29 04:36:03;;;;;;;9.93;4.93;;;19.70;77.20;;;;;;5013685;28;20068;-14
2022/07/29 04:38:29;;;;;;;7.32;4.68;;;19.70;77.20;;;;;;5013548;28;20061;-13
2022/07/29 04:40:55;;;;;;;5.20;3.75;;;19.80;77.20;;;;;;5013276;28;20473;-14
2022/07/29 04:43:21;;;;;;;7.72;4.72;;;19.80;77.80;;;;;;5013672;28;20069;-14
2022/07/29 04:45:47;;;;;;;5.10;3.97;;;19.90;79.60;;;;;;5013548;28;20093;-13
2022/07/29 04:48:13;;;;;;;6.43;4.03;;;19.90;79.40;;;;;;5013346;28;20113;-13
2022/07/29 04:50:40;;;;;;;7.75;4.40;;;20.00;78.50;;;;;;5013628;28;20034;-14
2022/07/29 04:53:07;;;;;;;5.82;3.83;;;20.10;77.50;;;;;;5013507;28;20413;-14
2022/07/29 04:55:33;;;;;;;5.32;3.65;;;20.20;77.20;;;;;;5013421;28;20038;-13
2022/07/29 04:58:00;;;;;;;5.32;4.00;;;20.30;76.90;;;;;;5013197;28;20029;-14
2022/07/29 05:00:26;;;;;;;8.00;5.18;;;20.40;76.60;;;;;;5013113;28;20022;-14
2022/07/29 05:02:52;;;;;;;9.35;4.47;;;20.50;76.30;;;;;;5013530;28;20026;-14
2022/07/29 05:05:18;;;;;;;9.88;5.20;;;20.50;76.10;;;;;;5015426;28;20362;-14
2022/07/29 05:07:43;;;;;;;7.60;5.28;;;20.70;75.80;;;;;;5017159;28;20030;-13
2022/07/29 05:10:10;;;;;;;8.15;4.82;;;20.80;75.50;;;;;;5017292;28;20026;-13
2022/07/29 05:12:36;;;;;;;7.32;5.47;;;20.90;75.10;;;;;;5017069;28;20103;-14
2022/07/29 05:15:02;;;;;;;9.10;5.25;;;21.10;74.80;;;;;;5016949;28;20065;-14
2022/07/29 05:17:28;;;;;;;9.18;5.60;;;21.20;74.50;;;;;;5017316;28;20072;-14
2022/07/29 05:19:54;;;;;;;10.90;5.78;;;21.40;74.30;;;;;;5015739;28;20021;-14
2022/07/29 05:22:20;;;;;;;7.68;5.40;;;21.50;73.80;;;;;;5016674;28;20032;-14
2022/07/29 05:24:46;;;;;;;7.32;5.80;;;21.80;73.40;;;;;;5016863;28;20385;-14
2022/07/29 05:27:13;;;;;;;9.98;5.60;;;21.90;72.80;;;;;;5016733;28;20026;-13
2022/07/29 05:29:39;;;;;;;8.07;5.63;;;22.00;72.40;;;;;;5017031;28;20022;-14
2022/07/29 05:32:05;;;;;;;7.07;5.25;;;22.20;72.20;;;;;;5016713;28;20432;-14
2022/07/29 05:34:31;;;;;;;12.23;6.30;;;22.40;71.80;;;;;;5016426;28;20029;-14
2022/07/29 05:36:57;;;;;;;9.75;6.50;;;22.50;71.60;;;;;;5016923;28;20022;-13
2022/07/29 05:39:24;;;;;;;8.10;6.10;;;22.60;71.10;;;;;;5016391;28;20095;-13
2022/07/29 05:41:50;;;;;;;8.07;6.22;;;22.70;70.90;;;;;;5016493;28;20026;-13
2022/07/29 05:44:16;;;;;;;10.00;6.53;;;22.80;70.80;;;;;;5016312;28;20097;-14
2022/07/29 05:46:42;;;;;;;9.80;6.80;;;22.90;70.60;;;;;;5016566;28;20025;-14
2022/07/29 05:49:08;;;;;;;8.27;5.97;;;23.00;70.30;;;;;;5016739;28;20026;-14
2022/07/29 05:51:34;;;;;;;8.57;6.18;;;23.20;70.20;;;;;;5015156;28;20034;-13
2022/07/29 05:54:00;;;;;;;12.48;6.68;;;23.30;70.00;;;;;;5016376;28;20474;-13
2022/07/29 05:56:26;;;;;;;10.32;6.85;;;23.40;69.90;;;;;;5016023;28;20029;-13
2022/07/29 05:58:52;;;;;;;8.95;6.32;;;23.40;69.60;;;;;;5017091;28;20132;-13
2022/07/29 06:01:18;;;;;;;8.10;5.75;;;23.60;69.10;;;;;;5016168;28;20441;-13
2022/07/29 06:03:44;;;;;;;8.75;5.90;;;23.70;68.80;;;;;;5014889;28;20053;-13
2022/07/29 06:06:11;;;;;;;8.25;6.03;;;23.80;68.50;;;;;;5016033;28;20025;-13
2022/07/29 06:08:37;;;;;;;8.35;5.88;;;23.90;68.20;;;;;;5016132;28;20080;-13
2022/07/29 06:11:04;;;;;;;8.70;5.60;;;24.00;67.80;;;;;;5016235;28;20425;-14
2022/07/29 06:13:30;;;;;;;7.80;6.00;;;24.10;67.60;;;;;;5016164;28;20117;-14
2022/07/29 06:15:57;;;;;;;7.68;5.35;;;24.10;67.10;;;;;;5015309;28;20030;-13
2022/07/29 06:18:23;;;;;;;8.25;5.78;;;24.30;66.70;;;;;;5015790;28;20072;-13
2022/07/29 06:20:50;;;;;;;8.20;5.88;;;24.40;66.30;;;;;;5015816;28;20018;-14
2022/07/29 06:23:17;;;;;;;7.00;5.07;;;24.50;65.60;;;;;;5016020;28;20030;-13
2022/07/29 06:25:43;;;;;;;6.55;5.20;;;24.60;65.70;;;;;;5015682;28;20425;-13
2022/07/29 06:28:09;;;;;;;13.00;5.50;;;24.70;65.70;;;;;;5015824;28;20478;-13
2022/07/29 06:30:36;;;;;;;7.60;5.18;;;24.80;65.30;;;;;;5015422;28;20577;-13
2022/07/29 06:33:02;;;;;;;6.72;4.75;;;24.90;64.90;;;;;;5014368;28;20025;-13
2022/07/29 06:35:28;;;;;;;8.38;5.20;;;25.00;63.90;;;;;;5015777;28;20117;-13
2022/07/29 06:37:54;;;;;;;6.20;4.18;;;25.20;62.90;;;;;;5015797;28;20037;-13
2022/07/29 06:43:04;;;;;;;5.60;4.90;;;25.40;62.40;;;;;;5015838;28;20541;-12
2022/07/29 06:45:34;;;;;;;6.28;4.70;;;25.50;62.00;;;;;;5015245;28;20125;-13
2022/07/29 06:48:00;;;;;;;8.48;5.25;;;25.60;61.50;;;;;;5015620;28;20030;-13
2022/07/29 06:50:26;;;;;;;8.00;4.82;;;25.70;61.10;;;;;;5015368;28;20180;-13
2022/07/29 06:52:52;;;;;;;6.55;4.72;;;25.80;60.20;;;;;;5015592;28;20022;-14
2022/07/29 06:55:19;;;;;;;5.78;4.43;;;25.90;59.70;;;;;;5015415;28;20037;-13
2022/07/29 06:57:46;;;;;;;6.82;5.05;;;25.90;60.00;;;;;;5015116;28;20489;-13
2022/07/29 07:00:13;;;;;;;6.72;4.63;;;26.10;59.70;;;;;;5015098;28;20022;-13
2022/07/29 07:02:39;;;;;;;5.90;4.82;;;26.30;59.40;;;;;;5015189;28;20022;-13
2022/07/29 07:05:06;;;;;;;7.57;5.00;;;26.40;59.20;;;;;;5015252;28;20070;-13
2022/07/29 07:07:31;;;;;;;8.88;7.28;;;26.50;58.30;;;;;;5013655;28;20437;-13
2022/07/29 07:09:57;;;;;;;5.32;4.55;;;26.60;58.20;;;;;;5014965;28;20034;-13
2022/07/29 07:12:23;;;;;;;10.45;5.32;;;26.70;57.60;;;;;;5013350;28;20025;-14
2022/07/29 07:14:49;;;;;;;5.95;4.57;;;26.80;57.30;;;;;;5015213;28;20065;-13
2022/07/29 07:17:15;;;;;;;5.95;4.57;;;27.00;57.30;;;;;;5014758;28;20589;-13
2022/07/29 07:19:41;;;;;;;5.03;4.28;;;27.20;56.80;;;;;;5014926;28;20026;-13
2022/07/29 07:22:07;;;;;;;5.57;4.60;;;27.40;56.40;;;;;;5014884;28;20018;-13
2022/07/29 07:24:33;;;;;;;8.10;4.15;;;27.60;55.60;;;;;;5014460;28;20014;-13
2022/07/29 07:26:58;;;;;;;6.40;4.28;;;27.90;55.70;;;;;;5012625;28;20022;-13
2022/07/29 07:29:24;;;;;;;8.43;4.75;;;28.00;54.60;;;;;;5014413;28;20053;-13
2022/07/29 07:31:50;;;;;;;6.28;4.70;;;28.20;54.50;;;;;;5013249;28;20029;-13
2022/07/29 07:34:16;;;;;;;7.95;4.47;;;28.20;54.00;;;;;;5012895;28;20087;-13
2022/07/29 07:36:42;;;;;;;5.93;4.30;;;28.20;54.10;;;;;;5014985;28;20033;-14
2022/07/29 07:39:08;;;;;;;6.78;4.70;;;28.30;54.20;;;;;;5014632;28;20030;-13
2022/07/29 07:41:34;;;;;;;5.97;4.40;;;28.40;53.60;;;;;;5014448;28;20037;-13
2022/07/29 07:44:00;;;;;;;7.70;4.43;;;28.50;53.00;;;;;;5014160;28;20030;-13
2022/07/29 07:46:26;;;;;;;8.48;4.45;;;28.60;52.50;;;;;;5014333;28;20026;-13
2022/07/29 07:48:52;;;;;;;6.00;4.50;;;28.70;51.90;;;;;;5014134;28;20052;-13
2022/07/29 07:51:18;;;;;;;7.43;4.30;;;28.80;51.80;;;;;;5012893;28;20034;-13
2022/07/29 07:53:44;;;;;;;5.97;4.30;;;29.00;51.80;;;;;;5014306;28;20068;-13
2022/07/29 07:56:10;;;;;;;5.47;4.20;;;29.40;51.50;;;;;;5014005;28;20061;-14
2022/07/29 07:58:36;;;;;;;6.03;4.53;;;29.60;50.80;;;;;;5013758;28;20370;-13
2022/07/29 08:01:03;;;;;;;6.75;4.25;;;29.90;49.80;;;;;;5014292;28;20033;-13
2022/07/29 08:03:28;;;;;;;5.60;4.07;;;29.90;49.20;;;;;;5014225;28;20034;-13
2022/07/29 08:05:54;;;;;;;5.78;4.40;;;30.00;49.10;;;;;;5014100;28;20079;-13
2022/07/29 08:08:21;;;;;;;7.38;4.60;;;30.20;48.50;;;;;;5013883;28;20116;-14
2022/07/29 08:10:53;;;;;;;6.88;4.60;;;30.30;48.30;;;;;;5014266;28;20021;-13
2022/07/29 08:13:24;;;;;;;6.68;4.03;;;30.50;47.60;;;;;;5014164;28;20049;-12
2022/07/29 08:16:11;;;;;;;5.93;4.00;;;30.80;46.70;;;;;;5014070;28;20112;-13
2022/07/29 08:18:38;;;;;;;7.22;4.70;;;31.20;46.00;;;;;;5013885;28;20037;-13
2022/07/29 08:21:04;;;;;;;7.40;4.35;;;31.60;44.40;;;;;;5013982;28;20084;-12
2022/07/29 08:23:39;;;;;;;6.05;4.50;;;32.20;43.50;;;;;;5013561;28;20026;-13
2022/07/29 08:26:10;;;;;;;6.88;4.50;;;32.60;42.90;;;;;;5013946;28;20051;-12
2022/07/29 08:28:38;;;;;;;6.93;4.25;;;33.30;41.40;;;;;;5013744;28;20084;-12
2022/07/29 08:31:04;;;;;;;7.38;4.50;;;33.80;40.30;;;;;;5013839;28;20052;-12
2022/07/29 08:33:30;;;;;;;6.13;4.35;;;34.20;39.60;;;;;;5013448;28;20447;-12
2022/07/29 08:35:56;;;;;;;5.40;4.05;;;34.40;39.10;;;;;;5013723;28;20038;-12
2022/07/29 08:38:22;;;;;;;6.32;4.35;;;34.50;39.40;;;;;;5013076;28;20589;-12
2022/07/29 08:40:48;;;;;;;5.28;4.78;;;34.40;38.90;;;;;;5011997;28;20045;-12
2022/07/29 08:43:14;;;;;;;5.30;4.10;;;34.20;39.20;;;;;;5013386;28;20018;-12
2022/07/29 08:45:49;;;;;;;6.07;4.35;;;34.00;39.60;;;;;;5013627;28;20018;-12
2022/07/29 08:48:20;;;;;;;4.50;3.90;;;33.90;39.70;;;;;;5013455;28;20025;-13
2022/07/29 08:50:52;;;;;;;6.07;4.20;;;33.90;40.20;;;;;;5013466;28;20025;-12
2022/07/29 08:53:18;;;;;;;5.15;3.90;;;33.90;39.90;;;;;;5013575;28;20018;-12
2022/07/29 08:55:46;;;;;;;6.95;4.70;;;33.90;39.60;;;;;;5013532;28;20037;-12
2022/07/29 08:58:14;;;;;;;6.53;4.40;;;34.00;39.50;;;;;;5013295;28;20096;-12
2022/07/29 09:00:53;;;;;;;5.93;4.43;;;34.00;39.90;;;;;;5013509;28;20025;-12
2022/07/29 09:03:22;;;;;;;5.70;4.00;;;34.00;39.40;;;;;;5013241;28;20454;-12
2022/07/29 09:05:49;;;;;;;5.88;4.50;;;34.00;38.30;;;;;;5013210;28;20045;-12
2022/07/29 09:08:17;;;;;;;5.55;4.10;;;34.10;38.20;;;;;;5012961;28;20540;-14
2022/07/29 09:10:44;;;;;;;8.07;4.65;;;34.30;37.80;;;;;;5013416;28;20026;-13
2022/07/29 09:13:10;;;;;;;5.53;4.20;;;34.50;37.50;;;;;;5013086;28;20059;-13
2022/07/29 09:15:36;;;;;;;7.07;4.40;;;34.70;37.90;;;;;;5013054;28;20072;-12
2022/07/29 09:18:02;;;;;;;6.38;4.30;;;35.00;37.50;;;;;;5013099;28;20042;-12
2022/07/29 09:21:57;;;;;;;6.07;4.45;;;35.00;37.10;;;;;;5013137;28;20030;-13
2022/07/29 09:23:14;;;;;;;5.38;4.05;;;34.90;36.90;;;;;;5013043;28;20033;-13
2022/07/29 09:25:41;;;;;;;6.38;4.28;;;34.60;37.60;;;;;;5013371;28;20020;-13
2022/07/29 09:28:12;;;;;;;4.82;4.05;;;34.50;37.80;;;;;;5012855;28;20026;-14
2022/07/29 09:30:56;;;;;;;5.03;4.50;;;34.40;37.90;;;;;;5013067;28;20034;-13
2022/07/29 09:33:23;;;;;;;5.07;4.07;;;34.40;37.30;;;;;;5013234;28;20030;-13
2022/07/29 09:36:03;;;;;;;5.72;4.07;;;34.40;38.10;;;;;;5013130;28;20033;-12
2022/07/29 09:38:29;;;;;;;5.45;4.20;;;34.40;37.70;;;;;;5012810;28;20041;-12
2022/07/29 09:41:00;;;;;;;5.43;4.32;;;34.40;38.10;;;;;;5012776;28;20054;-12
2022/07/29 09:43:26;;;;;;;5.22;4.15;;;34.70;37.50;;;;;;5012979;28;20084;-13
2022/07/29 09:45:52;;;;;;;5.97;4.22;;;34.80;37.00;;;;;;5012785;28;20418;-12
2022/07/29 09:48:19;;;;;;;5.63;3.70;;;34.80;36.40;;;;;;5012831;28;20034;-13
2022/07/29 09:50:48;;;;;;;5.50;4.10;;;34.60;36.60;;;;;;5014182;28;20030;-12
2022/07/29 09:53:33;;;;;;;5.30;4.00;;;34.40;36.20;;;;;;5017155;28;20073;-13
2022/07/29 09:55:59;;;;;;;5.15;3.88;;;34.30;36.10;;;;;;5016221;28;20038;-13
2022/07/29 09:58:25;;;;;;;5.00;4.22;;;34.50;36.40;;;;;;5016320;28;20034;-13
2022/07/29 10:00:54;;;;;;;6.35;4.15;;;34.80;35.80;;;;;;5016515;28;20030;-12
2022/07/29 10:03:21;;;;;;;6.07;3.80;;;35.00;36.00;;;;;;5016501;28;20026;-12
2022/07/29 10:06:10;;;;;;;6.88;4.05;;;35.30;35.70;;;;;;5016401;28;20072;-12
2022/07/29 10:08:37;;;;;;;7.07;4.68;;;35.70;35.20;;;;;;5016146;28;20037;-12
2022/07/29 10:11:10;;;;;;;7.47;4.13;;;36.00;34.90;;;;;;5016336;28;20022;-12
2022/07/29 10:13:36;;;;;;;6.65;4.30;;;36.30;34.50;;;;;;5016157;28;20030;-12
2022/07/29 10:16:02;;;;;;;4.85;4.10;;;36.50;34.30;;;;;;5015823;28;20494;-12
2022/07/29 10:18:29;;;;;;;6.03;4.55;;;36.70;34.40;;;;;;5015692;28;20022;-12
2022/07/29 10:20:56;;;;;;;5.95;4.60;;;37.10;34.00;;;;;;5015885;28;20033;-13
2022/07/29 10:23:23;;;;;;;7.70;4.50;;;37.40;33.30;;;;;;5016063;28;20112;-12
2022/07/29 10:25:50;;;;;;;4.60;4.10;;;37.60;33.10;;;;;;5016129;28;20374;-12
2022/07/29 10:28:16;;;;;;;5.20;4.30;;;38.00;32.70;;;;;;5015470;28;20042;-13
2022/07/29 10:30:44;;;;;;;5.70;4.10;;;38.40;31.80;;;;;;5015961;28;20087;-13
2022/07/29 10:33:40;;;;;;;6.13;4.07;;;38.60;31.30;;;;;;5015602;28;20026;-13
2022/07/29 10:36:21;;;;;;;4.60;4.05;;;38.80;31.10;;;;;;5015635;28;20394;-13
2022/07/29 10:39:17;;;;;;;6.32;4.18;;;39.00;30.70;;;;;;5015825;28;20026;-13
2022/07/29 10:42:24;;;;;;;5.53;3.92;;;39.40;30.20;;;;;;5015822;28;20045;-13
2022/07/29 10:44:52;;;;;;;5.18;4.18;;;39.50;29.40;;;;;;5015507;28;20084;-13
2022/07/29 10:47:23;;;;;;;5.55;3.97;;;39.80;29.20;;;;;;5015856;28;20456;-13
2022/07/29 10:50:03;;;;;;;4.85;4.00;;;40.00;29.00;;;;;;5014165;28;20026;-13
2022/07/29 10:52:47;;;;;;;5.50;3.72;;;40.30;28.80;;;;;;5015063;28;20030;-13
2022/07/29 10:55:39;;;;;;;4.25;3.85;;;40.50;29.00;;;;;;5015508;28;20030;-13
2022/07/29 10:58:17;;;;;;;4.32;3.78;;;40.80;28.80;;;;;;5015112;28;20513;-13
2022/07/29 11:00:44;;;;;;;6.65;4.40;;;40.90;28.30;;;;;;5015134;28;20067;-13
2022/07/29 11:03:44;;;;;;;3.70;3.40;;;40.80;28.40;;;;;;5014085;28;20018;-13
2022/07/29 11:06:10;;;;;;;5.18;4.40;;;40.50;29.00;;;;;;5015355;28;20026;-13
2022/07/29 11:08:36;;;;;;;5.35;4.18;;;40.10;29.40;;;;;;5014723;28;20550;-13
2022/07/29 11:11:20;;;;;;;5.75;4.00;;;39.70;30.00;;;;;;5015159;28;20022;-13
2022/07/29 11:13:51;;;;;;;6.15;4.28;;;39.40;29.60;;;;;;5014967;28;20026;-12
2022/07/29 11:16:21;;;;;;;4.10;3.70;;;39.00;30.00;;;;;;5014900;28;20042;-13
2022/07/29 11:19:12;;;;;;;5.75;3.90;;;38.90;31.00;;;;;;5015309;28;20030;-12
2022/07/29 11:21:40;;;;;;;4.95;3.80;;;39.40;30.00;;;;;;5014678;28;20110;-13
2022/07/29 11:24:19;;;;;;;6.43;3.58;;;39.90;29.10;;;;;;5014636;28;20373;-13
2022/07/29 11:26:45;;;;;;;3.90;3.35;;;40.20;29.20;;;;;;5015029;28;20034;-13
2022/07/29 11:29:24;;;;;;;4.03;3.63;;;40.50;29.30;;;;;;5014552;28;20044;-12
2022/07/29 11:31:54;;;;;;;3.88;3.47;;;41.00;27.70;;;;;;5014453;28;20527;-13
2022/07/29 11:34:27;;;;;;;4.03;3.38;;;41.40;28.30;;;;;;5014617;28;20034;-13
2022/07/29 11:37:17;;;;;;;4.22;3.80;;;41.60;28.30;;;;;;5014710;28;20066;-13
2022/07/29 11:40:07;;;;;;;3.88;3.42;;;42.20;27.00;;;;;;5010931;28;20046;-13
2022/07/29 11:42:36;;;;;;;4.10;3.40;;;42.50;27.00;;;;;;5014013;28;20402;-13
2022/07/29 11:45:06;;;;;;;3.83;3.42;;;43.00;26.10;;;;;;5013044;28;20467;-13
2022/07/29 11:47:34;;;;;;;6.75;3.80;;;43.40;26.10;;;;;;5013373;28;20026;-13
2022/07/29 11:50:02;;;;;;;6.53;3.53;;;43.40;25.70;;;;;;5014504;28;20026;-12
2022/07/29 11:52:37;;;;;;;3.88;3.25;;;43.20;25.00;;;;;;5014241;28;20113;-13
2022/07/29 11:55:08;;;;;;;4.03;3.53;;;43.00;24.80;;;;;;5014036;28;20025;-13
2022/07/29 11:57:35;;;;;;;4.10;3.50;;;42.90;25.30;;;;;;5014383;28;20014;-13
2022/07/29 12:00:03;;;;;;;5.00;3.63;;;42.50;24.90;;;;;;5014314;28;20033;-13
2022/07/29 12:02:41;;;;;;;5.18;3.75;;;42.20;25.20;;;;;;5014057;28;20017;-13
2022/07/29 12:05:08;;;;;;;4.70;3.42;;;42.00;25.00;;;;;;5014223;28;20026;-13
2022/07/29 12:07:35;;;;;;;5.70;3.35;;;41.50;25.70;;;;;;5014145;28;20026;-13
2022/07/29 12:10:02;;;;;;;5.20;3.65;;;41.10;26.40;;;;;;5012672;28;20096;-13
2022/07/29 12:12:27;;;;;;;6.85;3.45;;;41.20;26.20;;;;;;5013570;28;20065;-13
2022/07/29 12:14:55;;;;;;;5.38;3.80;;;41.00;26.30;;;;;;5013622;28;20072;-13
2022/07/29 12:17:32;;;;;;;4.63;3.47;;;41.00;26.50;;;;;;5014252;28;20038;-13
2022/07/29 12:19:59;;;;;;;4.80;3.50;;;40.90;26.40;;;;;;5014003;28;20036;-13
2022/07/29 12:22:33;;;;;;;4.57;3.22;;;40.90;26.90;;;;;;5013456;28;20030;-13
2022/07/29 12:25:26;;;;;;;4.82;3.35;;;41.10;27.00;;;;;;5013752;28;20109;-13
2022/07/29 12:28:01;;;;;;;3.97;3.58;;;41.90;26.40;;;;;;5012468;28;20034;-13
2022/07/29 12:30:48;;;;;;;5.82;3.80;;;42.60;25.50;;;;;;5013433;28;20457;-13
2022/07/29 12:33:22;;;;;;;5.10;3.28;;;43.10;24.80;;;;;;5013905;28;20212;-13
2022/07/29 12:35:52;;;;;;;4.68;3.33;;;43.40;23.90;;;;;;5013504;28;20030;-13
2022/07/29 12:38:18;;;;;;;4.40;3.50;;;43.60;24.40;;;;;;5013563;28;20128;-13
2022/07/29 12:40:46;;;;;;;4.78;3.40;;;43.90;24.30;;;;;;5013407;28;20516;-13
2022/07/29 12:43:14;;;;;;;7.50;3.88;;;44.20;24.10;;;;;;5013307;28;20452;-13
2022/07/29 12:45:46;;;;;;;4.68;3.33;;;44.30;23.70;;;;;;5013714;28;20033;-13
2022/07/29 12:48:14;;;;;;;4.78;3.45;;;44.10;24.10;;;;;;5013740;28;20026;-13
2022/07/29 12:51:01;;;;;;;4.50;2.92;;;44.00;23.60;;;;;;5013659;28;20028;-13
2022/07/29 12:53:29;;;;;;;3.80;3.10;;;43.70;24.10;;;;;;5013532;28;20026;-13
2022/07/29 12:55:56;;;;;;;4.15;3.10;;;43.70;24.30;;;;;;5013207;28;20033;-12
2022/07/29 12:58:37;;;;;;;5.70;3.40;;;43.90;24.10;;;;;;5013099;28;20065;-13
2022/07/29 13:01:09;;;;;;;4.50;3.38;;;44.00;23.40;;;;;;5013332;28;20105;-13
2022/07/29 13:03:47;;;;;;;4.22;3.25;;;44.10;23.80;;;;;;5013589;28;20022;-13